Dupage Airport Chicago,West Chicago US
ICAO: KDPA
IATA: DPA
Category: Medium
Scheduled Services: No

Elevation: 759 ft
TransAlt. 18000 ft.

Airport Communications:
CHICAGO APP/DEP:133.5
ASOS:124.8
ATIS:124.8
CLNC DEL:119.75
GND:121.8
KANKAKEE RDO:122.3
TWR:120.9
UNICOM:122.95

KDPA Zoom In..

Runways:

(A) RW 02L length 7571 ft width 100 ft
ILS 111.70 / hdg 15

(B) RW 02R length 6443 ft width 100 ft
---- / hdg 15

(C) RW 10 length 4750 ft width 75 ft
ILS 109.50 / hdg 97

(D) RW 15 length 3399 ft width 100 ft
---- / hdg 149

(E) RW 20L length 6443 ft width 100 ft
---- / hdg 195

(F) RW 20R length 7571 ft width 100 ft
---- / hdg 195

(G) RW 28 length 4750 ft width 75 ft
---- / hdg 277

(H) RW 33 length 3399 ft width 100 ft
---- / hdg 329

Location; KDPA
Day. 21 / Time. 05.48 Zulu
* Altimeter: 29.66
* Temperature: 20° c. 68°f.
* Wind from: 300° Speed 10 kn.
Dewpoint: 20° c.
Visibility: 3 Statute Miles.
Clouds: Few 600 ft.
Clouds: Broken 1800 ft.
Clouds: Overcast 2400 ft.
Conditions: Light Rain.Conditions: Mist.

KDPA 210548Z 30010KT 3SM -RA BR FEW006 BKN018 OVC024 20/20 A2966 RMK AO2 RAB03 SLP041 P0009 60019 T02000200 10206 20194 402440194 53000


Wind From 300°
Speed 10 kn.

 
 
jpsmedia.com for Web Design worldairports.se 2018   terms of use